Time;durP1;ratioP1;P1;durP2;ratioP2;P2;SDS_P1;SDS_P2;PMS_P1;PMS_P2;Temp;Humidity;BMP_temperature;BMP_pressure;BME280_temperature;BME280_humidity;BME280_pressure;Samples;Min_cycle;Max_cycle;Signal;HPM_P1;HPM_P2
2021/09/03 00:02:03;;;;;;;7.45;5.65;;;;;;;;;;5114155;28;20087;-83
2021/09/03 00:04:29;;;;;;;8.65;6.13;;;;;;;;;;5118636;28;20043;-84
2021/09/03 00:06:56;;;;;;;8.57;5.85;;;;;;;;;;5105300;28;20036;-83
2021/09/03 00:09:22;;;;;;;10.00;6.13;;;;;;;;;;5102245;28;20081;-83
2021/09/03 00:11:48;;;;;;;6.95;5.13;;;;;;;;;;5103335;28;20035;-82
2021/09/03 00:14:14;;;;;;;9.18;6.15;;;;;;;;;;5082948;28;20020;-82
2021/09/03 00:16:40;;;;;;;7.60;5.75;;;;;;;;;;5100870;28;20024;-83
2021/09/03 00:19:07;;;;;;;10.63;6.45;;;;;;;;;;5102210;28;20028;-83
2021/09/03 00:21:33;;;;;;;9.40;5.60;;;;;;;;;;5100607;28;20012;-83
2021/09/03 00:23:59;;;;;;;10.52;6.25;;;;;;;;;;5101218;28;20024;-83
2021/09/03 00:26:25;;;;;;;7.90;6.20;;;;;;;;;;5100962;28;20028;-82
2021/09/03 00:28:51;;;;;;;8.68;6.03;;;;;;;;;;5099310;28;20024;-82
2021/09/03 00:31:17;;;;;;;9.75;6.18;;;;;;;;;;5080759;28;20028;-83
2021/09/03 00:33:43;;;;;;;12.07;6.07;;;;;;;;;;5093006;28;20024;-83
2021/09/03 00:36:09;;;;;;;8.13;6.38;;;;;;;;;;5088103;28;20020;-83
2021/09/03 00:38:35;;;;;;;7.80;6.32;;;;;;;;;;5099385;28;20032;-83
2021/09/03 00:41:01;;;;;;;9.57;5.93;;;;;;;;;;5082683;28;20040;-82
2021/09/03 00:43:30;;;;;;;8.30;6.28;;;;;;;;;;5099937;28;20028;-83
2021/09/03 00:45:57;;;;;;;9.20;5.70;;;;;;;;;;5083924;28;20330;-83
2021/09/03 00:48:23;;;;;;;8.77;6.13;;;;;;;;;;5104597;28;20024;-83
2021/09/03 00:50:50;;;;;;;9.25;6.53;;;;;;;;;;5104518;28;20036;-83
2021/09/03 00:53:17;;;;;;;11.32;6.43;;;;;;;;;;5103192;28;20048;-82
2021/09/03 00:55:43;;;;;;;11.38;6.47;;;;;;;;;;5097784;28;20028;-82
2021/09/03 00:58:09;;;;;;;11.07;6.72;;;;;;;;;;5095842;28;20035;-82
2021/09/03 01:00:35;;;;;;;9.65;6.57;;;;;;;;;;5075908;28;20036;-82
2021/09/03 01:03:01;;;;;;;10.77;7.03;;;;;;;;;;5078607;28;20342;-82
2021/09/03 01:05:27;;;;;;;9.13;6.88;;;;;;;;;;5081085;28;20028;-81
2021/09/03 01:07:53;;;;;;;13.82;6.53;;;;;;;;;;5099222;28;20035;-82
2021/09/03 01:10:20;;;;;;;8.98;6.68;;;;;;;;;;5099701;28;20027;-82
2021/09/03 01:12:47;;;;;;;10.18;6.78;;;;;;;;;;5065065;28;20480;-81
2021/09/03 01:15:13;;;;;;;12.05;6.93;;;;;;;;;;5100776;28;20484;-82
2021/09/03 01:17:40;;;;;;;11.40;7.05;;;;;;;;;;5081411;28;20028;-81
2021/09/03 01:20:07;;;;;;;10.98;7.28;;;;;;;;;;5081395;28;20025;-81
2021/09/03 01:22:33;;;;;;;10.38;7.35;;;;;;;;;;5100189;28;20020;-82
2021/09/03 01:24:59;;;;;;;8.82;7.43;;;;;;;;;;5082254;28;20032;-82
2021/09/03 01:27:26;;;;;;;8.82;7.13;;;;;;;;;;5084709;28;20028;-82
2021/09/03 01:29:52;;;;;;;9.90;7.38;;;;;;;;;;5059881;28;20032;-81
2021/09/03 01:32:18;;;;;;;9.25;7.35;;;;;;;;;;5078279;28;20024;-82
2021/09/03 01:34:44;;;;;;;10.88;7.93;;;;;;;;;;5077948;28;20112;-81
2021/09/03 01:37:10;;;;;;;9.10;7.03;;;;;;;;;;5096924;28;20055;-82
2021/09/03 01:39:36;;;;;;;12.23;7.60;;;;;;;;;;5104276;28;20028;-81
2021/09/03 01:42:02;;;;;;;10.65;7.90;;;;;;;;;;5110341;28;20699;-81
2021/09/03 01:44:28;;;;;;;11.07;8.45;;;;;;;;;;5092110;28;20031;-82
2021/09/03 01:46:54;;;;;;;11.35;8.10;;;;;;;;;;5081253;28;20130;-82
2021/09/03 01:49:20;;;;;;;13.25;8.68;;;;;;;;;;5077134;28;20032;-82
2021/09/03 01:51:46;;;;;;;10.30;8.43;;;;;;;;;;5061474;28;20106;-82
2021/09/03 01:54:12;;;;;;;11.02;7.97;;;;;;;;;;5085577;28;20031;-82
2021/09/03 01:56:39;;;;;;;10.60;7.57;;;;;;;;;;5099957;28;20035;-82
2021/09/03 01:59:05;;;;;;;10.48;8.18;;;;;;;;;;5080810;28;20080;-82
2021/09/03 02:01:31;;;;;;;12.07;8.02;;;;;;;;;;5099848;28;20056;-82
2021/09/03 02:03:57;;;;;;;10.15;7.55;;;;;;;;;;5082057;28;20036;-82
2021/09/03 02:06:23;;;;;;;10.07;7.72;;;;;;;;;;5099921;28;20028;-81
2021/09/03 02:08:49;;;;;;;10.63;7.60;;;;;;;;;;5099591;28;20388;-82
2021/09/03 02:11:16;;;;;;;12.48;7.90;;;;;;;;;;5082470;28;20054;-81
2021/09/03 02:13:42;;;;;;;12.88;7.70;;;;;;;;;;5101147;28;20020;-82
2021/09/03 02:16:08;;;;;;;11.88;7.40;;;;;;;;;;5067288;28;20488;-82
2021/09/03 02:18:34;;;;;;;10.10;7.43;;;;;;;;;;5083074;28;20039;-82
2021/09/03 02:21:00;;;;;;;10.60;6.72;;;;;;;;;;5066528;28;20059;-82
2021/09/03 02:23:26;;;;;;;10.57;7.90;;;;;;;;;;5101318;28;20032;-82
2021/09/03 02:25:52;;;;;;;9.13;6.95;;;;;;;;;;5100712;28;20111;-81
2021/09/03 02:28:18;;;;;;;10.13;7.53;;;;;;;;;;5101668;28;20093;-82
2021/09/03 02:30:45;;;;;;;14.10;7.25;;;;;;;;;;5102903;28;20084;-82
2021/09/03 02:33:12;;;;;;;11.55;7.95;;;;;;;;;;5107782;28;20008;-81
2021/09/03 02:35:38;;;;;;;10.20;7.40;;;;;;;;;;5095031;28;20024;-82
2021/09/03 02:38:04;;;;;;;10.80;7.03;;;;;;;;;;5109979;28;20032;-81
2021/09/03 02:40:31;;;;;;;10.85;6.93;;;;;;;;;;5102236;28;20095;-82
2021/09/03 02:42:57;;;;;;;11.27;6.95;;;;;;;;;;5083396;28;20115;-81
2021/09/03 02:45:23;;;;;;;8.45;7.32;;;;;;;;;;5101271;28;20032;-81
2021/09/03 02:47:49;;;;;;;11.88;7.45;;;;;;;;;;5102774;28;20054;-82
2021/09/03 02:50:15;;;;;;;11.00;7.15;;;;;;;;;;5101536;28;20050;-81
2021/09/03 02:52:41;;;;;;;12.35;7.60;;;;;;;;;;5101957;28;20103;-82
2021/09/03 02:55:08;;;;;;;13.40;8.20;;;;;;;;;;5103050;28;20024;-82
2021/09/03 02:57:34;;;;;;;10.20;7.05;;;;;;;;;;5103096;28;20052;-82
2021/09/03 03:00:00;;;;;;;13.48;7.95;;;;;;;;;;5085463;28;20090;-82
2021/09/03 03:02:26;;;;;;;10.50;7.00;;;;;;;;;;5093956;28;20050;-81
2021/09/03 03:04:52;;;;;;;10.98;7.28;;;;;;;;;;5115657;28;20091;-81
2021/09/03 03:07:18;;;;;;;9.57;7.25;;;;;;;;;;5095857;28;20069;-81
2021/09/03 03:09:44;;;;;;;13.75;7.70;;;;;;;;;;5114913;28;20496;-81
2021/09/03 03:12:11;;;;;;;10.10;7.38;;;;;;;;;;5089600;28;20025;-82
2021/09/03 03:14:37;;;;;;;10.27;7.63;;;;;;;;;;5066062;28;20032;-81
2021/09/03 03:17:04;;;;;;;11.00;7.82;;;;;;;;;;5065748;28;20052;-82
2021/09/03 03:19:30;;;;;;;14.32;8.10;;;;;;;;;;5083136;28;20028;-81
2021/09/03 03:21:57;;;;;;;12.02;8.02;;;;;;;;;;5065840;28;20024;-81
2021/09/03 03:24:23;;;;;;;10.60;7.15;;;;;;;;;;5065400;28;20489;-81
2021/09/03 03:26:49;;;;;;;11.40;7.65;;;;;;;;;;5098362;28;20024;-81
2021/09/03 03:29:15;;;;;;;12.60;7.55;;;;;;;;;;5083932;28;20024;-82
2021/09/03 03:31:41;;;;;;;12.18;7.70;;;;;;;;;;5083609;28;20024;-81
2021/09/03 03:34:09;;;;;;;10.10;7.03;;;;;;;;;;5084917;28;20033;-81
2021/09/03 03:36:36;;;;;;;10.68;7.28;;;;;;;;;;5090767;28;20055;-81
2021/09/03 03:39:03;;;;;;;11.73;7.65;;;;;;;;;;5081347;28;20246;-81
2021/09/03 03:41:29;;;;;;;11.77;7.20;;;;;;;;;;5098065;28;20096;-81
2021/09/03 03:43:55;;;;;;;11.63;7.28;;;;;;;;;;5102033;28;20071;-81
2021/09/03 03:46:21;;;;;;;11.40;7.78;;;;;;;;;;5103203;28;20084;-81
2021/09/03 03:48:47;;;;;;;9.20;7.00;;;;;;;;;;5103055;28;20036;-81
2021/09/03 03:51:13;;;;;;;11.10;7.72;;;;;;;;;;5102692;28;20031;-81
2021/09/03 03:53:39;;;;;;;9.18;6.80;;;;;;;;;;5102744;28;20096;-81
2021/09/03 03:56:05;;;;;;;11.23;7.75;;;;;;;;;;5103651;28;20450;-81
2021/09/03 03:58:31;;;;;;;9.57;7.40;;;;;;;;;;5103969;28;20035;-82
2021/09/03 04:00:57;;;;;;;11.60;7.82;;;;;;;;;;5102645;28;20024;-81
2021/09/03 04:03:23;;;;;;;10.13;7.57;;;;;;;;;;5103837;28;20067;-81
2021/09/03 04:05:49;;;;;;;10.95;8.13;;;;;;;;;;5104322;28;20039;-81
2021/09/03 04:08:15;;;;;;;12.85;8.23;;;;;;;;;;5097819;28;20088;-81
2021/09/03 04:10:41;;;;;;;10.70;7.55;;;;;;;;;;5083493;28;20024;-81
2021/09/03 04:13:07;;;;;;;11.73;8.55;;;;;;;;;;5084849;28;20020;-81
2021/09/03 04:15:33;;;;;;;10.18;7.38;;;;;;;;;;5085626;28;20108;-81
2021/09/03 04:17:59;;;;;;;11.48;8.05;;;;;;;;;;5085288;28;20536;-81
2021/09/03 04:20:25;;;;;;;11.75;8.05;;;;;;;;;;5101973;28;20060;-81
2021/09/03 04:22:52;;;;;;;14.10;7.97;;;;;;;;;;5100721;28;20028;-81
2021/09/03 04:25:18;;;;;;;10.18;7.78;;;;;;;;;;5082783;28;20031;-81
2021/09/03 04:27:44;;;;;;;12.68;7.68;;;;;;;;;;5087368;28;20032;-81
2021/09/03 04:30:11;;;;;;;10.40;8.05;;;;;;;;;;5080346;28;20036;-81
2021/09/03 04:32:37;;;;;;;12.48;7.82;;;;;;;;;;5080816;28;20473;-81
2021/09/03 04:35:03;;;;;;;11.63;8.35;;;;;;;;;;5084516;28;20060;-81
2021/09/03 04:37:29;;;;;;;11.32;8.00;;;;;;;;;;5083685;28;20039;-81
2021/09/03 04:39:55;;;;;;;10.43;8.13;;;;;;;;;;5081971;28;20039;-82
2021/09/03 04:42:21;;;;;;;11.10;7.63;;;;;;;;;;5099871;28;20431;-81
2021/09/03 04:44:47;;;;;;;10.73;7.97;;;;;;;;;;5100094;28;20027;-81
2021/09/03 04:47:13;;;;;;;11.23;7.93;;;;;;;;;;5096616;28;20039;-81
2021/09/03 04:49:39;;;;;;;11.85;8.40;;;;;;;;;;5077753;28;20028;-82
2021/09/03 04:52:05;;;;;;;11.82;8.27;;;;;;;;;;5096480;28;20030;-81
2021/09/03 04:54:31;;;;;;;11.13;7.90;;;;;;;;;;5096866;28;20024;-81
2021/09/03 04:56:57;;;;;;;12.82;8.50;;;;;;;;;;5096290;28;20492;-81
2021/09/03 04:59:23;;;;;;;10.60;7.53;;;;;;;;;;5076200;28;20107;-82
2021/09/03 05:01:49;;;;;;;10.98;7.53;;;;;;;;;;5082669;28;20043;-82
2021/09/03 05:04:15;;;;;;;13.75;7.75;;;;;;;;;;5089088;28;20029;-82
2021/09/03 05:06:41;;;;;;;9.10;6.50;;;;;;;;;;5094387;28;20063;-81
2021/09/03 05:09:07;;;;;;;12.18;7.88;;;;;;;;;;5100241;28;20034;-81
2021/09/03 05:11:33;;;;;;;12.15;6.72;;;;;;;;;;5100744;28;20439;-80
2021/09/03 05:13:59;;;;;;;11.38;7.10;;;;;;;;;;5077516;28;20039;-83
2021/09/03 05:16:25;;;;;;;9.32;7.10;;;;;;;;;;5096827;28;20028;-83
2021/09/03 05:18:52;;;;;;;11.77;7.65;;;;;;;;;;5061604;28;20540;-82
2021/09/03 05:21:19;;;;;;;12.05;7.65;;;;;;;;;;5091157;28;20361;-82
2021/09/03 05:23:45;;;;;;;11.07;7.07;;;;;;;;;;5080473;28;20031;-82
2021/09/03 05:26:11;;;;;;;10.88;7.30;;;;;;;;;;5065492;28;20024;-81
2021/09/03 05:28:38;;;;;;;14.90;8.05;;;;;;;;;;5090964;28;20484;-81
2021/09/03 05:31:04;;;;;;;10.63;7.15;;;;;;;;;;5093669;28;20027;-83
2021/09/03 05:33:30;;;;;;;10.57;7.38;;;;;;;;;;5095104;28;20389;-82
2021/09/03 05:35:56;;;;;;;12.70;7.10;;;;;;;;;;5078207;28;20032;-83
2021/09/03 05:38:22;;;;;;;10.68;6.97;;;;;;;;;;5094970;28;20035;-83
2021/09/03 05:40:48;;;;;;;10.82;6.93;;;;;;;;;;5096713;28;20040;-82
2021/09/03 05:43:20;;;;;;;11.43;6.85;;;;;;;;;;5096842;28;20032;-79
2021/09/03 05:45:46;;;;;;;11.98;7.68;;;;;;;;;;5099610;28;20050;-83
2021/09/03 05:48:12;;;;;;;11.90;7.13;;;;;;;;;;5103162;28;20044;-82
2021/09/03 05:50:38;;;;;;;10.77;6.95;;;;;;;;;;5071855;28;20033;-82
2021/09/03 05:53:04;;;;;;;8.65;6.68;;;;;;;;;;5103959;28;20099;-82
2021/09/03 05:55:30;;;;;;;11.60;7.25;;;;;;;;;;5084359;28;20549;-82
2021/09/03 05:57:58;;;;;;;11.68;8.35;;;;;;;;;;5102948;28;20080;-82
2021/09/03 06:00:24;;;;;;;11.45;8.00;;;;;;;;;;5101787;28;20109;-82
2021/09/03 06:02:50;;;;;;;13.38;7.85;;;;;;;;;;5084457;28;20095;-83
2021/09/03 06:05:16;;;;;;;13.65;7.78;;;;;;;;;;5101416;28;20055;-83
2021/09/03 06:07:42;;;;;;;12.18;7.13;;;;;;;;;;5064646;28;20021;-83
2021/09/03 06:10:09;;;;;;;10.95;7.72;;;;;;;;;;5063768;28;20104;-83
2021/09/03 06:12:36;;;;;;;10.20;7.30;;;;;;;;;;5081282;28;20495;-82
2021/09/03 06:15:02;;;;;;;12.60;7.03;;;;;;;;;;5070999;28;20020;-83
2021/09/03 06:17:28;;;;;;;10.88;8.02;;;;;;;;;;5104017;28;20028;-83
2021/09/03 06:19:54;;;;;;;10.45;7.80;;;;;;;;;;5102299;28;20256;-82
2021/09/03 06:22:20;;;;;;;9.88;7.72;;;;;;;;;;5082661;28;20028;-83
2021/09/03 06:24:46;;;;;;;13.55;7.95;;;;;;;;;;5084471;28;20027;-82
2021/09/03 06:27:12;;;;;;;10.73;6.78;;;;;;;;;;5101695;28;20065;-83
2021/09/03 06:32:12;;;;;;;12.35;7.38;;;;;;;;;;5084443;28;20037;-83
2021/09/03 06:34:40;;;;;;;13.80;7.55;;;;;;;;;;5068439;28;20029;-83
2021/09/03 06:37:06;;;;;;;9.70;7.38;;;;;;;;;;5091798;28;20030;-79
2021/09/03 06:39:32;;;;;;;13.90;7.68;;;;;;;;;;5107363;28;20024;-83
2021/09/03 06:41:58;;;;;;;10.02;7.72;;;;;;;;;;5101472;28;20057;-81
2021/09/03 06:44:24;;;;;;;9.73;6.78;;;;;;;;;;5106580;28;20044;-82
2021/09/03 06:46:50;;;;;;;15.82;6.90;;;;;;;;;;5107666;28;20067;-81
2021/09/03 06:49:16;;;;;;;8.77;6.20;;;;;;;;;;5098419;28;20050;-82
2021/09/03 06:51:42;;;;;;;9.15;6.20;;;;;;;;;;5099308;28;20033;-80
2021/09/03 06:54:08;;;;;;;8.93;6.13;;;;;;;;;;5105358;28;20048;-82
2021/09/03 06:56:34;;;;;;;9.73;6.28;;;;;;;;;;5106346;28;20031;-82
2021/09/03 06:59:02;;;;;;;12.68;6.82;;;;;;;;;;5104272;28;20429;-82
2021/09/03 07:01:28;;;;;;;7.60;5.90;;;;;;;;;;5104347;28;20074;-83
2021/09/03 07:03:54;;;;;;;7.90;5.97;;;;;;;;;;5101441;28;20107;-83
2021/09/03 07:06:20;;;;;;;8.90;6.00;;;;;;;;;;5073151;28;20067;-83
2021/09/03 07:08:46;;;;;;;9.32;6.05;;;;;;;;;;5063893;28;20064;-83
2021/09/03 07:11:12;;;;;;;10.98;5.75;;;;;;;;;;5082313;28;20033;-83
2021/09/03 07:13:38;;;;;;;8.82;5.63;;;;;;;;;;5068055;28;20028;-82
2021/09/03 07:16:04;;;;;;;8.93;5.80;;;;;;;;;;5073067;28;20035;-83
2021/09/03 07:18:30;;;;;;;10.68;5.45;;;;;;;;;;5090845;28;20028;-83
2021/09/03 07:20:57;;;;;;;9.07;5.28;;;;;;;;;;5064268;28;20036;-83
2021/09/03 07:23:23;;;;;;;8.50;5.38;;;;;;;;;;5087545;28;20035;-84
2021/09/03 07:25:49;;;;;;;9.48;5.43;;;;;;;;;;5068229;28;20028;-83
2021/09/03 07:28:15;;;;;;;6.57;4.68;;;;;;;;;;5101947;28;20044;-83
2021/09/03 07:30:41;;;;;;;9.63;5.30;;;;;;;;;;5080147;28;20029;-79
2021/09/03 07:33:07;;;;;;;9.00;4.82;;;;;;;;;;5071231;28;20066;-79
2021/09/03 07:35:34;;;;;;;8.38;4.47;;;;;;;;;;5074560;28;20031;-78
2021/09/03 07:38:00;;;;;;;10.57;4.90;;;;;;;;;;5066649;28;20132;-78
2021/09/03 07:40:27;;;;;;;7.70;5.07;;;;;;;;;;5070286;28;20059;-78
2021/09/03 07:42:53;;;;;;;7.28;4.95;;;;;;;;;;5053682;28;20044;-78
2021/09/03 07:45:19;;;;;;;9.88;5.05;;;;;;;;;;5071208;28;20060;-78
2021/09/03 07:47:45;;;;;;;8.05;5.15;;;;;;;;;;5058686;28;20031;-78
2021/09/03 07:50:11;;;;;;;7.00;5.00;;;;;;;;;;5074329;28;20092;-78
2021/09/03 07:52:37;;;;;;;6.22;4.60;;;;;;;;;;5076040;28;20016;-78
2021/09/03 07:55:03;;;;;;;8.02;4.57;;;;;;;;;;5075225;28;20542;-78
2021/09/03 07:57:29;;;;;;;8.13;4.78;;;;;;;;;;5072285;28;20031;-77
2021/09/03 07:59:56;;;;;;;6.97;5.03;;;;;;;;;;5076915;28;20024;-78
2021/09/03 08:02:22;;;;;;;6.50;4.40;;;;;;;;;;5064976;28;20400;-79
2021/09/03 08:04:48;;;;;;;7.18;4.60;;;;;;;;;;5083538;28;20028;-78
2021/09/03 08:07:14;;;;;;;9.30;4.55;;;;;;;;;;5094701;28;20043;-78
2021/09/03 08:09:40;;;;;;;7.40;4.97;;;;;;;;;;5093831;28;20028;-77
2021/09/03 08:12:06;;;;;;;6.93;5.10;;;;;;;;;;5090460;28;20433;-77
2021/09/03 08:14:32;;;;;;;6.50;4.68;;;;;;;;;;5090345;28;20481;-77
2021/09/03 08:16:58;;;;;;;7.75;4.70;;;;;;;;;;5089574;28;20031;-77
2021/09/03 08:19:24;;;;;;;6.68;4.15;;;;;;;;;;5074863;28;20041;-77
2021/09/03 08:21:50;;;;;;;6.20;4.60;;;;;;;;;;5068324;28;20103;-77
2021/09/03 08:24:16;;;;;;;7.85;4.90;;;;;;;;;;5054397;28;20081;-77
2021/09/03 08:26:43;;;;;;;7.38;5.07;;;;;;;;;;5073843;28;20448;-77
2021/09/03 08:29:09;;;;;;;7.85;4.43;;;;;;;;;;5055243;28;20063;-77
2021/09/03 08:31:35;;;;;;;9.68;4.53;;;;;;;;;;5073621;28;20442;-79
2021/09/03 08:34:01;;;;;;;6.18;4.40;;;;;;;;;;5073783;28;20068;-77
2021/09/03 08:36:27;;;;;;;5.68;4.20;;;;;;;;;;5086950;28;20027;-76
2021/09/03 08:38:53;;;;;;;9.38;4.53;;;;;;;;;;5093107;28;20054;-77
2021/09/03 08:41:19;;;;;;;10.05;4.43;;;;;;;;;;5093459;28;20036;-76
2021/09/03 08:43:45;;;;;;;7.25;4.50;;;;;;;;;;5093879;28;20031;-76
2021/09/03 08:46:12;;;;;;;6.57;4.07;;;;;;;;;;5093845;28;20028;-77
2021/09/03 08:48:40;;;;;;;6.00;4.35;;;;;;;;;;5093494;28;20039;-77
2021/09/03 08:51:06;;;;;;;6.75;4.53;;;;;;;;;;5093009;28;20024;-76
2021/09/03 08:53:32;;;;;;;6.43;4.50;;;;;;;;;;5091615;28;20024;-76
2021/09/03 08:55:58;;;;;;;5.60;4.15;;;;;;;;;;5074793;28;20106;-76
2021/09/03 08:58:24;;;;;;;6.35;4.30;;;;;;;;;;5094601;28;20024;-80
2021/09/03 09:01:07;;;;;;;6.43;4.93;;;;;;;;;;5088728;28;20070;-80
2021/09/03 09:03:34;;;;;;;7.28;5.07;;;;;;;;;;5057059;28;20479;-79
2021/09/03 09:06:00;;;;;;;11.77;5.05;;;;;;;;;;5076077;28;20036;-81
2021/09/03 09:08:27;;;;;;;7.30;4.32;;;;;;;;;;5076092;28;20067;-80
2021/09/03 09:10:57;;;;;;;7.07;4.53;;;;;;;;;;5058326;28;20031;-80
2021/09/03 09:13:28;;;;;;;7.00;4.75;;;;;;;;;;5088376;28;20031;-80
2021/09/03 09:15:57;;;;;;;9.35;4.90;;;;;;;;;;5075303;28;20096;-81
2021/09/03 09:18:36;;;;;;;7.10;4.47;;;;;;;;;;5076744;28;20108;-81
2021/09/03 09:21:06;;;;;;;6.60;4.70;;;;;;;;;;5075298;28;20031;-80
2021/09/03 09:23:42;;;;;;;9.00;4.70;;;;;;;;;;5076411;28;20043;-80
2021/09/03 09:26:09;;;;;;;6.82;4.50;;;;;;;;;;5077118;28;20032;-79
2021/09/03 09:28:35;;;;;;;7.60;4.13;;;;;;;;;;5076234;28;20528;-80
2021/09/03 09:31:01;;;;;;;6.57;4.22;;;;;;;;;;5077432;28;20081;-79
2021/09/03 09:33:27;;;;;;;6.35;3.65;;;;;;;;;;5075992;28;20017;-80
2021/09/03 09:35:57;;;;;;;6.80;4.40;;;;;;;;;;5082093;28;20032;-80
2021/09/03 09:38:30;;;;;;;6.68;4.10;;;;;;;;;;5095463;28;20039;-80
2021/09/03 09:41:00;;;;;;;7.68;4.30;;;;;;;;;;5077387;28;20044;-81
2021/09/03 09:43:35;;;;;;;5.25;4.07;;;;;;;;;;5096820;28;20035;-80
2021/09/03 09:46:10;;;;;;;6.18;3.88;;;;;;;;;;5077338;28;20025;-81
2021/09/03 09:48:52;;;;;;;6.80;4.80;;;;;;;;;;5085797;28;20043;-81
2021/09/03 09:51:28;;;;;;;6.23;4.37;;;;;;;;;;5087781;28;20027;-81
2021/09/03 09:53:55;;;;;;;5.57;4.57;;;;;;;;;;5089773;28;20024;-81
2021/09/03 09:56:21;;;;;;;7.13;4.70;;;;;;;;;;5086056;28;20056;-81
2021/09/03 09:58:49;;;;;;;7.00;4.00;;;;;;;;;;5083517;28;20575;-81
2021/09/03 10:01:16;;;;;;;9.10;4.65;;;;;;;;;;5086899;28;20489;-81
2021/09/03 10:03:42;;;;;;;8.32;4.22;;;;;;;;;;5091064;28;20028;-81
2021/09/03 10:06:08;;;;;;;5.45;4.10;;;20.80;90.30;;;;;;5084230;28;20028;-81
2021/09/03 10:08:34;;;;;;;6.05;3.85;;;;;;;;;;5083434;28;20626;-81
2021/09/03 10:11:00;;;;;;;9.88;4.43;;;;;;;;;;5080849;28;20029;-81
2021/09/03 10:13:26;;;;;;;5.80;4.30;;;;;;;;;;5090574;28;20040;-81
2021/09/03 10:15:52;;;;;;;7.20;3.97;;;;;;;;;;5063680;28;20028;-81
2021/09/03 10:18:19;;;;;;;7.10;4.35;;;;;;;;;;5098869;28;20058;-81
2021/09/03 10:20:45;;;;;;;5.82;4.38;;;;;;;;;;5098476;28;20040;-81
2021/09/03 10:23:11;;;;;;;7.20;4.10;;;;;;;;;;5098388;28;20036;-81
2021/09/03 10:25:52;;;;;;;5.47;4.10;;;;;;;;;;5098886;28;20031;-81
2021/09/03 10:28:26;;;;;;;6.10;4.30;;;;;;;;;;5098979;28;20035;-81
2021/09/03 10:31:05;;;;;;;6.22;4.18;;;;;;;;;;5096078;28;20044;-83
2021/09/03 10:33:34;;;;;;;5.20;3.90;;;;;;;;;;5079359;28;20020;-83
2021/09/03 10:36:00;;;;;;;9.70;4.32;;;;;;;;;;5097536;28;20162;-83
2021/09/03 10:38:32;;;;;;;9.25;4.38;;;30.30;71.10;;;;;;5098070;28;20504;-81
2021/09/03 10:40:59;;;;;;;6.88;4.55;;;31.70;64.20;;;;;;5080536;28;20256;-79
2021/09/03 10:43:45;;;;;;;6.75;3.97;;;32.10;62.30;;;;;;5095500;28;20108;-82
2021/09/03 10:46:15;;;;;;;5.40;3.88;;;32.30;61.10;;;;;;5062725;28;20024;-81
2021/09/03 10:48:49;;;;;;;5.20;3.80;;;32.00;61.10;;;;;;5102434;28;20020;-81
2021/09/03 10:51:33;;;;;;;6.28;3.92;;;32.10;61.80;;;;;;5079361;28;20051;-81
2021/09/03 10:53:59;;;;;;;6.07;4.43;;;31.10;61.10;;;;;;5090722;28;20517;-82
2021/09/03 10:56:27;;;;;;;5.30;4.60;;;31.60;62.40;;;;;;5056260;28;20033;-82
2021/09/03 10:59:04;;;;;;;9.02;4.60;;;;;;;;;;5078235;28;20031;-82
2021/09/03 11:01:31;;;;;;;6.55;4.35;;;;;;;;;;5095028;22;20116;-77
2021/09/03 11:04:03;;;;;;;4.88;4.00;;;;;;;;;;5086167;28;20032;-77
2021/09/03 11:06:30;;;;;;;5.72;4.22;;;;;;;;;;5093737;28;20032;-78
2021/09/03 11:08:57;;;;;;;6.35;4.22;;;;;;;;;;5095064;28;20498;-79
2021/09/03 11:11:28;;;;;;;6.82;4.53;;;;;;;;;;5072618;28;20029;-77
2021/09/03 11:13:58;;;;;;;6.57;4.43;;;;;;;;;;5076438;28;20035;-77
2021/09/03 11:16:35;;;;;;;7.30;4.32;;;;;;;;;;5074786;28;20052;-78
2021/09/03 11:19:01;;;;;;;5.85;4.10;;;;;;;;;;5081718;28;20036;-78
2021/09/03 11:21:30;;;;;;;6.50;4.50;;;;;;;;;;5085103;28;20028;-78
2021/09/03 11:23:57;;;;;;;6.38;4.20;;;;;;;;;;5081853;28;20029;-78
2021/09/03 11:26:23;;;;;;;6.45;4.22;;;;;;;;;;5053651;28;20404;-79
2021/09/03 11:28:49;;;;;;;5.47;4.30;;;;;;;;;;5077732;28;20016;-75
2021/09/03 11:31:15;;;;;;;10.65;3.88;;;;;;;;;;5092139;28;20050;-75
2021/09/03 11:33:45;;;;;;;5.05;4.28;;;;;;;;;;5093896;28;20361;-76
2021/09/03 11:36:11;;;;;;;6.47;4.38;;;;;;;;;;5093506;28;20028;-76
2021/09/03 11:38:37;;;;;;;6.03;4.53;;;;;;;;;;5093722;28;20070;-76
2021/09/03 11:41:10;;;;;;;5.35;4.25;;;;;;;;;;5073562;28;20032;-77
2021/09/03 11:43:36;;;;;;;7.35;4.30;;;;;;;;;;5090307;28;20024;-76
2021/09/03 11:46:15;;;;;;;6.90;4.75;;;;;;;;;;5083238;28;20067;-76
2021/09/03 11:48:42;;;;;;;7.22;4.25;;;;;;;;;;5069094;28;20696;-76
2021/09/03 11:51:14;;;;;;;5.15;4.15;;;;;;;;;;5068903;28;20465;-76
2021/09/03 11:53:41;;;;;;;8.63;3.80;;;;;;;;;;5071505;28;20104;-76
2021/09/03 11:56:11;;;;;;;5.35;4.18;;;;;;;;;;5054084;28;20029;-76
2021/09/03 11:58:37;;;;;;;6.25;4.20;;;;;;;;;;5077801;28;20020;-76
2021/09/03 12:01:06;;;;;;;8.45;4.43;;;;;;;;;;5082087;28;20040;-76
2021/09/03 12:03:36;;;;;;;5.20;4.07;;;;;;;;;;5072373;28;20028;-76
2021/09/03 12:06:04;;;;;;;7.65;4.60;;;;;;;;;;5076573;28;20047;-76
2021/09/03 12:08:35;;;;;;;7.43;4.68;;;;;;;;;;5093838;28;20055;-76
2021/09/03 12:11:07;;;;;;;7.65;4.40;;;;;;;;;;5085122;28;20739;-76
2021/09/03 12:13:34;;;;;;;8.57;4.28;;;;;;;;;;5070725;28;20095;-75
2021/09/03 12:16:02;;;;;;;5.70;4.15;;;;;;;;;;5088825;28;20033;-76
2021/09/03 12:18:28;;;;;;;5.40;4.68;;;;;;;;;;5083612;28;20813;-76
2021/09/03 12:20:56;;;;;;;5.43;4.22;;;;;;;;;;5088772;28;20111;-76
2021/09/03 12:23:23;;;;;;;5.05;4.05;;;;;;;;;;5088889;28;20056;-75
2021/09/03 12:25:49;;;;;;;6.00;4.13;;;;;;;;;;5078757;28;20033;-76
2021/09/03 12:28:17;;;;;;;5.78;4.30;;;;;;;;;;5069243;28;20116;-76
2021/09/03 12:30:43;;;;;;;5.95;4.38;;;;;;;;;;5081271;28;20025;-76
2021/09/03 12:33:21;;;;;;;9.50;4.07;;;;;;;;;;5068557;28;20381;-77
2021/09/03 12:35:48;;;;;;;6.93;4.28;;;;;;;;;;5069910;28;20196;-76
2021/09/03 12:38:14;;;;;;;7.18;4.03;;;;;;;;;;5089071;28;20020;-76
2021/09/03 12:40:40;;;;;;;7.55;4.32;;;;;;;;;;5089214;28;20032;-76
2021/09/03 12:43:15;;;;;;;7.07;4.55;;;;;;;;;;5073893;28;20032;-76
2021/09/03 12:45:45;;;;;;;6.47;4.65;;;;;;;;;;5074491;28;20024;-76
2021/09/03 12:48:12;;;;;;;6.57;4.13;;;;;;;;;;5075100;28;20031;-76
2021/09/03 12:50:38;;;;;;;6.25;4.18;;;;;;;;;;5090441;28;20095;-75
2021/09/03 12:53:04;;;;;;;5.00;3.95;;;;;;;;;;5090484;28;20020;-76
2021/09/03 12:55:30;;;;;;;6.63;3.70;;;;;;;;;;5092458;28;20421;-76
2021/09/03 12:57:56;;;;;;;8.02;3.90;;;;;;;;;;5090133;28;20103;-76
2021/09/03 13:00:22;;;;;;;7.55;4.00;;;;;;;;;;5091276;28;20679;-76
2021/09/03 13:02:48;;;;;;;5.22;3.90;;;;;;;;;;5079993;28;20040;-76
2021/09/03 13:05:14;;;;;;;6.53;3.58;;;;;;;;;;5072310;28;20033;-77
2021/09/03 13:07:40;;;;;;;4.50;3.50;;;;;;;;;;5072327;28;20138;-76
2021/09/03 13:10:06;;;;;;;4.50;3.78;;;;;;;;;;5075041;28;20393;-76
2021/09/03 13:12:32;;;;;;;4.82;3.88;;;;;;;;;;5080311;28;20510;-76
2021/09/03 13:14:58;;;;;;;4.68;3.63;;;;;;;;;;5054366;28;20492;-76
2021/09/03 13:17:24;;;;;;;5.38;4.05;;;;;;;;;;5085421;28;20036;-76
2021/09/03 13:19:50;;;;;;;5.63;4.00;;;;;;;;;;5089899;28;20043;-76
2021/09/03 13:22:16;;;;;;;7.47;4.00;;;;;;;;;;5081410;28;20036;-76
2021/09/03 13:24:42;;;;;;;4.78;4.07;;;;;;;;;;5090683;28;20039;-76
2021/09/03 13:27:08;;;;;;;4.60;3.92;;;;;;;;;;5071936;28;20093;-76
2021/09/03 13:29:34;;;;;;;5.78;4.03;;;31.80;61.60;;;;;;5089408;28;20114;-76
2021/09/03 13:32:00;;;;;;;6.35;3.80;;;35.70;53.80;;;;;;5082834;28;20528;-76
2021/09/03 13:34:28;;;;;;;6.50;4.35;;;36.00;52.20;;;;;;5087925;28;20114;-76
2021/09/03 13:36:53;;;;;;;6.28;4.10;;;36.00;53.30;;;;;;5086974;28;20110;-76
2021/09/03 13:39:19;;;;;;;4.85;3.60;;;36.20;51.90;;;;;;5087370;28;20453;-77
2021/09/03 13:41:45;;;;;;;5.40;3.83;;;;;;;;;;5087034;28;20647;-77
2021/09/03 13:44:11;;;;;;;6.32;4.00;;;;;;;;;;5085732;28;20108;-76
2021/09/03 13:46:37;;;;;;;4.03;3.50;;;;;;;;;;5091360;28;20116;-77
2021/09/03 13:49:04;;;;;;;4.80;3.53;;;;;;;;;;5090978;28;20479;-76
2021/09/03 13:51:30;;;;;;;7.80;3.92;;;;;;;;;;5091108;28;20644;-76
2021/09/03 13:53:56;;;;;;;5.43;3.92;;;;;;;;;;5073352;28;20070;-76
2021/09/03 13:56:22;;;;;;;4.38;3.53;;;;;;;;;;5078699;28;20037;-76
2021/09/03 13:58:48;;;;;;;7.35;4.00;;;;;;;;;;5080174;28;20046;-77
2021/09/03 14:01:14;;;;;;;3.67;3.30;;;;;;;;;;5090913;28;20036;-77
2021/09/03 14:03:42;;;;;;;5.00;3.53;;;;;;;;;;5071291;28;20052;-77
2021/09/03 14:06:08;;;;;;;4.45;3.08;;;;;;;;;;5087918;28;20551;-77
2021/09/03 14:08:34;;;;;;;5.80;3.10;;;;;;;;;;5059143;28;20508;-77
2021/09/03 14:11:00;;;;;;;5.60;3.53;;;;;;;;;;5082127;28;20099;-76
2021/09/03 14:13:25;;;;;;;8.35;3.63;;;36.40;51.90;;;;;;5070848;28;20493;-76
2021/09/03 14:15:51;;;;;;;4.18;3.35;;;37.50;48.40;;;;;;5052988;28;20028;-76
2021/09/03 14:18:17;;;;;;;4.50;3.55;;;37.50;48.30;;;;;;5083423;28;20080;-77
2021/09/03 14:20:43;;;;;;;8.43;3.58;;;38.10;48.20;;;;;;5086953;28;20043;-77
2021/09/03 14:23:12;;;;;;;4.40;3.38;;;38.80;47.80;;;;;;5083656;28;20178;-77
2021/09/03 14:25:40;;;;;;;5.60;3.60;;;39.00;45.90;;;;;;5066254;28;20075;-77
2021/09/03 14:28:07;;;;;;;5.43;3.42;;;39.40;45.70;;;;;;5068492;28;20028;-77
2021/09/03 14:30:34;;;;;;;3.85;3.25;;;39.50;45.20;;;;;;5088528;28;20020;-76